Time;durP1;ratioP1;P1;durP2;ratioP2;P2;SDS_P1;SDS_P2;PMS_P1;PMS_P2;Temp;Humidity;BMP_temperature;BMP_pressure;BME280_temperature;BME280_humidity;BME280_pressure;Samples;Min_cycle;Max_cycle;Signal;HPM_P1;HPM_P2
2022/10/28 00:00:49;;;;;;;144.10;76.80;;;;;;;;;;4928849;28;20885;-34
2022/10/28 00:03:16;;;;;;;140.07;77.60;;;;;;;;;;4929894;28;20500;-34
2022/10/28 00:05:42;;;;;;;144.93;79.67;;;;;;;;;;4929172;28;20225;-35
2022/10/28 00:08:08;;;;;;;145.70;79.80;;;;;;;;;;4933288;28;20183;-34
2022/10/28 00:10:34;;;;;;;147.40;78.47;;;;;;;;;;4933233;28;20190;-34
2022/10/28 00:13:00;;;;;;;137.67;76.47;;;;;;;;;;4934905;28;20175;-35
2022/10/28 00:15:26;;;;;;;133.73;76.97;;;;;;;;;;4925439;28;20237;-35
2022/10/28 00:17:52;;;;;;;149.13;80.87;;;;;;;;;;4935162;28;20174;-35
2022/10/28 00:20:18;;;;;;;125.10;74.20;;;;;;;;;;4927757;28;20309;-35
2022/10/28 00:22:44;;;;;;;128.53;71.40;;;;;;;;;;4933252;28;20179;-36
2022/10/28 00:25:10;;;;;;;123.97;70.43;;;;;;;;;;4940058;28;20745;-36
2022/10/28 00:27:36;;;;;;;137.90;76.60;;;;;;;;;;4934553;28;20174;-35
2022/10/28 00:30:03;;;;;;;140.87;74.70;;;;;;;;;;4935619;28;20729;-36
2022/10/28 00:32:29;;;;;;;125.67;75.53;;;;;;;;;;4933744;28;20179;-36
2022/10/28 00:34:55;;;;;;;132.33;73.97;;;;;;;;;;4933372;28;20191;-37
2022/10/28 00:37:22;;;;;;;128.70;74.57;;;;;;;;;;4923889;28;20631;-37
2022/10/28 00:39:48;;;;;;;120.63;72.10;;;;;;;;;;4938010;28;20263;-37
2022/10/28 00:42:16;;;;;;;130.77;71.67;;;;;;;;;;4936388;28;20532;-37
2022/10/28 00:44:42;;;;;;;140.57;76.37;;;;;;;;;;4929034;28;20593;-36
2022/10/28 00:47:22;;;;;;;136.23;73.37;;;;;;;;;;4936378;28;20191;-36
2022/10/28 00:49:49;;;;;;;133.70;75.40;;;;;;;;;;4934919;28;20209;-36
2022/10/28 00:52:20;;;;;;;128.33;73.97;;;;;;;;;;4926857;28;20655;-34
2022/10/28 00:54:47;;;;;;;119.07;68.30;;;;;;;;;;4933993;28;21038;-35
2022/10/28 00:57:15;;;;;;;130.90;71.43;;;;;;;;;;4937366;28;20218;-36
2022/10/28 00:59:48;;;;;;;140.53;74.50;;;;;;;;;;4935491;28;20687;-35
2022/10/28 01:02:14;;;;;;;138.60;75.87;;;;;;;;;;4933444;28;20273;-35
2022/10/28 01:04:40;;;;;;;141.00;78.30;;;;;;;;;;4928842;28;20572;-36
2022/10/28 01:07:06;;;;;;;127.73;73.00;;;;;;;;;;4935350;28;20194;-36
2022/10/28 01:09:33;;;;;;;132.30;73.67;;;;;;;;;;4941359;28;20266;-36
2022/10/28 01:12:23;;;;;;;133.43;76.80;;;;;;;;;;4935432;28;20217;-36
2022/10/28 01:15:09;;;;;;;153.17;79.83;;;;;;;;;;4937038;28;20178;-35
2022/10/28 01:17:35;;;;;;;156.50;82.93;;;;;;;;;;4932652;28;20182;-36
2022/10/28 01:20:07;;;;;;;153.07;83.23;;;;;;;;;;4934521;28;20539;-36
2022/10/28 01:22:36;;;;;;;148.23;82.33;;;;;;;;;;4931382;28;20186;-36
2022/10/28 01:25:09;;;;;;;150.20;81.93;;;;;;;;;;4931950;28;20732;-35
2022/10/28 01:27:35;;;;;;;139.27;76.93;;;;;;;;;;4933875;28;20181;-36
2022/10/28 01:30:08;;;;;;;137.47;78.07;;;;;;;;;;4951610;28;20277;-36
2022/10/28 01:32:43;;;;;;;165.17;87.87;;;;;;;;;;4933965;28;20191;-36
2022/10/28 01:35:13;;;;;;;159.07;87.77;;;;;;;;;;4934268;28;20194;-35
2022/10/28 01:37:55;;;;;;;164.70;87.03;;;;;;;;;;4929181;28;20186;-36
2022/10/28 01:40:24;;;;;;;139.77;79.13;;;;;;;;;;4931319;28;20202;-36
2022/10/28 01:43:05;;;;;;;139.50;78.67;;;;;;;;;;4928886;28;20497;-35
2022/10/28 01:45:55;;;;;;;138.83;77.43;;;;;;;;;;4927982;28;20178;-36
2022/10/28 01:48:25;;;;;;;153.07;84.23;;;;;;;;;;4933226;28;20200;-36
2022/10/28 01:51:14;;;;;;;123.67;73.13;;;;;;;;;;4929330;28;20190;-35
2022/10/28 01:53:43;;;;;;;144.70;81.93;;;;;;;;;;4928236;28;21093;-36
2022/10/28 01:56:14;;;;;;;156.33;85.37;;;;;;;;;;4932500;28;20676;-36
2022/10/28 01:58:41;;;;;;;144.50;81.83;;;;;;;;;;4934917;28;20442;-36
2022/10/28 02:01:08;;;;;;;150.83;83.97;;;;;;;;;;4927739;28;21083;-35
2022/10/28 02:03:34;;;;;;;142.17;83.13;;;;;;;;;;4931232;28;20210;-35
2022/10/28 02:06:02;;;;;;;138.87;80.63;;;;;;;;;;4933195;28;20171;-36
2022/10/28 02:08:43;;;;;;;163.13;89.93;;;;;;;;;;4931656;28;20179;-35
2022/10/28 02:11:17;;;;;;;181.00;94.63;;;;;;;;;;4931571;28;20623;-35
2022/10/28 02:13:43;;;;;;;174.77;93.43;;;;;;;;;;4921986;28;20643;-36
2022/10/28 02:16:09;;;;;;;146.63;84.03;;;;;;;;;;4923960;28;20925;-35
2022/10/28 02:18:38;;;;;;;169.47;90.37;;;;;;;;;;4931793;28;20735;-36
2022/10/28 02:21:09;;;;;;;153.47;86.83;;;;;;;;;;4932253;28;20479;-36
2022/10/28 02:23:39;;;;;;;147.53;82.97;;;;;;;;;;4928508;28;20802;-36
2022/10/28 02:26:15;;;;;;;162.37;87.00;;;;;;;;;;4928472;28;20182;-35
2022/10/28 02:29:01;;;;;;;124.07;70.03;;;;;;;;;;4927857;28;20466;-36
2022/10/28 02:31:31;;;;;;;125.67;68.90;;;;;;;;;;4934320;28;20332;-35
2022/10/28 02:34:00;;;;;;;117.37;65.80;;;;;;;;;;4929098;28;20422;-35
2022/10/28 02:36:28;;;;;;;126.30;69.17;;;;;;;;;;4929735;28;20190;-36
2022/10/28 02:38:56;;;;;;;128.60;71.13;;;;;;;;;;4928915;28;20915;-35
2022/10/28 02:41:28;;;;;;;105.30;60.90;;;;;;;;;;4931877;28;20199;-36
2022/10/28 02:44:10;;;;;;;134.03;72.87;;;;;;;;;;4928836;28;20190;-36
2022/10/28 02:46:38;;;;;;;123.80;70.50;;;;;;;;;;4933939;28;20362;-36
2022/10/28 02:49:07;;;;;;;144.20;79.90;;;;;;;;;;4927822;28;20793;-35
2022/10/28 02:51:37;;;;;;;142.50;80.03;;;;;;;;;;4931488;28;20621;-36
2022/10/28 02:54:06;;;;;;;137.97;80.70;;;;;;;;;;4932187;28;20182;-36
2022/10/28 02:56:35;;;;;;;156.93;86.67;;;;;;;;;;4930731;28;20271;-36
2022/10/28 02:59:01;;;;;;;162.00;90.20;;;;;;;;;;4935959;28;20179;-36
2022/10/28 03:01:27;;;;;;;170.27;91.60;;;;;;;;;;4932033;28;20211;-36
2022/10/28 03:03:53;;;;;;;155.90;89.03;;;;;;;;;;4928972;28;20385;-36
2022/10/28 03:06:19;;;;;;;153.47;85.87;;;;;;;;;;4933338;28;20622;-36
2022/10/28 03:08:45;;;;;;;180.00;95.20;;;;;;;;;;4933070;28;20179;-35
2022/10/28 03:11:11;;;;;;;172.87;93.53;;;;;;;;;;4933694;28;20806;-36
2022/10/28 03:13:37;;;;;;;146.20;83.70;;;;;;;;;;4928265;28;20805;-36
2022/10/28 03:16:03;;;;;;;149.53;86.80;;;;;;;;;;4936577;28;20882;-36
2022/10/28 03:18:29;;;;;;;157.67;89.43;;;;;;;;;;4935439;28;20187;-36
2022/10/28 03:20:55;;;;;;;150.07;87.43;;;;;;;;;;4928767;28;20211;-36
2022/10/28 03:23:21;;;;;;;177.20;94.67;;;;;;;;;;4931234;28;20183;-36
2022/10/28 03:25:47;;;;;;;167.60;93.30;;;;;;;;;;4935266;28;20416;-36
2022/10/28 03:28:13;;;;;;;177.90;96.20;;;;;;;;;;4935630;28;20187;-35
2022/10/28 03:30:39;;;;;;;182.97;100.40;;;;;;;;;;4930647;28;20211;-36
2022/10/28 03:33:06;;;;;;;167.47;95.47;;;;;;;;;;4930006;28;20934;-36
2022/10/28 03:35:32;;;;;;;166.60;91.47;;;;;;;;;;4928695;28;20749;-35
2022/10/28 03:37:58;;;;;;;199.10;104.50;;;;;;;;;;4933267;28;20674;-36
2022/10/28 03:40:24;;;;;;;198.23;105.23;;;;;;;;;;4934635;28;20206;-36
2022/10/28 03:42:50;;;;;;;191.47;103.63;;;;;;;;;;4927695;28;20187;-35
2022/10/28 03:45:16;;;;;;;190.87;103.73;;;;;;;;;;4928390;28;20183;-36
2022/10/28 03:47:42;;;;;;;192.73;102.20;;;;;;;;;;4930393;28;20289;-36
2022/10/28 03:50:08;;;;;;;184.07;101.47;;;;;;;;;;4925516;28;20175;-35
2022/10/28 03:52:34;;;;;;;179.67;98.93;;;;;;;;;;4930010;28;20179;-36
2022/10/28 03:55:01;;;;;;;187.33;100.17;;;;;;;;;;4931942;28;20259;-36
2022/10/28 03:57:30;;;;;;;199.33;104.63;;;;;;;;;;4930269;28;20316;-35
2022/10/28 03:59:56;;;;;;;185.33;101.83;;;;;;;;;;4923066;28;20214;-36
2022/10/28 04:02:22;;;;;;;186.00;100.30;;;;;;;;;;4926293;28;20852;-37
2022/10/28 04:04:48;;;;;;;206.43;112.73;;;;;;;;;;4929105;28;20179;-35
2022/10/28 04:07:14;;;;;;;190.33;104.90;;;;;;;;;;4931787;28;20170;-35
2022/10/28 04:09:40;;;;;;;185.50;104.60;;;;;;;;;;4927651;28;20519;-36
2022/10/28 04:12:06;;;;;;;203.60;108.67;;;;;;;;;;4932386;28;20187;-36
2022/10/28 04:14:32;;;;;;;198.63;106.63;;;;;;;;;;4925532;28;21142;-36
2022/10/28 04:16:58;;;;;;;194.83;105.83;;;;;;;;;;4927868;28;20655;-37
2022/10/28 04:19:24;;;;;;;171.77;98.70;;;;;;;;;;4923060;28;20185;-36
2022/10/28 04:21:51;;;;;;;185.27;99.50;;;;;;;;;;4930604;28;20322;-35
2022/10/28 04:24:17;;;;;;;174.97;100.53;;;;;;;;;;4926246;28;20703;-36
2022/10/28 04:26:43;;;;;;;167.27;94.63;;;;;;;;;;4929834;28;20178;-35
2022/10/28 04:29:09;;;;;;;178.10;97.03;;;;;;;;;;4921920;28;20193;-37
2022/10/28 04:31:35;;;;;;;169.73;93.70;;;;;;;;;;4929021;28;20191;-36
2022/10/28 04:34:01;;;;;;;166.37;91.27;;;;;;;;;;4924867;28;20822;-36
2022/10/28 04:36:27;;;;;;;178.73;96.97;;;;;;;;;;4927302;28;20453;-36
2022/10/28 04:38:53;;;;;;;172.23;93.60;;;;;;;;;;4929392;28;20191;-36
2022/10/28 04:41:19;;;;;;;166.43;95.77;;;;;;;;;;4928559;28;20694;-36
2022/10/28 04:43:45;;;;;;;159.17;92.50;;;;;;;;;;4923759;28;20958;-36
2022/10/28 04:46:11;;;;;;;161.10;92.97;;;;;;;;;;4929370;28;20214;-36
2022/10/28 04:48:37;;;;;;;166.30;95.03;;;;;;;;;;4929167;28;20410;-36
2022/10/28 04:51:03;;;;;;;174.00;97.83;;;;;;;;;;4926686;28;20179;-36
2022/10/28 04:53:29;;;;;;;183.87;99.83;;;;;;;;;;4919805;28;20221;-35
2022/10/28 04:55:56;;;;;;;171.40;94.90;;;;;;;;;;4930048;28;20191;-36
2022/10/28 04:58:23;;;;;;;159.17;89.30;;;;;;;;;;4931388;28;20428;-36
2022/10/28 05:00:49;;;;;;;172.97;94.60;;;;;;;;;;4927446;28;20849;-37
2022/10/28 05:03:15;;;;;;;159.53;91.13;;;;;;;;;;4930297;28;20359;-36
2022/10/28 05:05:41;;;;;;;156.37;89.93;;;;;;;;;;4929828;28;20675;-36
2022/10/28 05:08:07;;;;;;;160.60;92.27;;;;;;;;;;4933832;28;20734;-36
2022/10/28 05:10:33;;;;;;;158.77;87.90;;;;;;;;;;4932324;28;21088;-37
2022/10/28 05:12:59;;;;;;;134.77;80.63;;;;;;;;;;4930181;28;20182;-36
2022/10/28 05:15:26;;;;;;;169.87;93.47;;;;;;;;;;4928030;28;20176;-36
2022/10/28 05:17:52;;;;;;;160.80;89.23;;;;;;;;;;4929507;28;20283;-36
2022/10/28 05:20:19;;;;;;;165.43;89.40;;;;;;;;;;4936649;28;20402;-35
2022/10/28 05:22:49;;;;;;;139.67;83.73;;;;;;;;;;4932188;28;20176;-36
2022/10/28 05:25:16;;;;;;;146.53;84.90;;;;;;;;;;4933868;28;20506;-37
2022/10/28 05:27:42;;;;;;;160.57;87.43;;;;;;;;;;4936053;28;20720;-36
2022/10/28 05:30:08;;;;;;;178.27;93.77;;;;;;;;;;4932204;28;20187;-37
2022/10/28 05:32:34;;;;;;;173.60;93.50;;;;;;;;;;4930880;28;20587;-37
2022/10/28 05:35:01;;;;;;;164.50;90.03;;;;;;;;;;4935742;28;20206;-37
2022/10/28 05:37:27;;;;;;;178.30;97.03;;;;;;;;;;4937848;28;20651;-37
2022/10/28 05:39:53;;;;;;;174.87;97.93;;;;;;;;;;4931134;28;20651;-37
2022/10/28 05:42:19;;;;;;;158.07;92.10;;;;;;;;;;4934003;28;20412;-37
2022/10/28 05:44:45;;;;;;;178.70;96.73;;;;;;;;;;4932083;28;20354;-37
2022/10/28 05:47:11;;;;;;;174.30;98.30;;;;;;;;;;4932424;28;20209;-36
2022/10/28 05:49:37;;;;;;;200.07;102.07;;;;;;;;;;4930589;28;20187;-36
2022/10/28 05:52:04;;;;;;;182.43;99.47;;;;;;;;;;4940505;28;20183;-37
2022/10/28 05:54:30;;;;;;;208.87;104.53;;;;;;;;;;4933382;28;20711;-36
2022/10/28 05:56:56;;;;;;;183.03;97.53;;;;;;;;;;4939597;28;20691;-35
2022/10/28 05:59:22;;;;;;;209.37;106.00;;;;;;;;;;4930813;28;20183;-36
2022/10/28 06:01:48;;;;;;;204.47;104.37;;;;;;;;;;4934099;28;20190;-36
2022/10/28 06:04:14;;;;;;;182.80;98.03;;;;;;;;;;4927414;28;20342;-36
2022/10/28 06:06:40;;;;;;;185.77;98.80;;;;;;;;;;4931275;28;20210;-37
2022/10/28 06:09:06;;;;;;;210.67;102.10;;;;;;;;;;4935446;28;20213;-37
2022/10/28 06:11:34;;;;;;;205.53;105.50;;;;;;;;;;4932167;28;20252;-36
2022/10/28 06:14:00;;;;;;;195.53;101.53;;;;;;;;;;4929208;28;20371;-36
2022/10/28 06:16:26;;;;;;;208.43;104.87;;;;;;;;;;4927410;28;20195;-37
2022/10/28 06:18:52;;;;;;;172.30;92.50;;;;;;;;;;4933310;28;20467;-37
2022/10/28 06:21:18;;;;;;;184.83;96.03;;;;;;;;;;4934067;28;20211;-36
2022/10/28 06:23:47;;;;;;;193.30;98.77;;;;;;;;;;4929459;28;20183;-37
2022/10/28 06:26:13;;;;;;;190.53;97.87;;;;;;;;;;4931397;28;20182;-37
2022/10/28 06:28:39;;;;;;;194.97;98.63;;;;;;;;;;4935735;28;20708;-36
2022/10/28 06:31:06;;;;;;;199.27;97.30;;;;;;;;;;4931432;28;20674;-35
2022/10/28 06:33:32;;;;;;;175.57;92.70;;;;;;;;;;4930323;28;20912;-37
2022/10/28 06:35:58;;;;;;;178.63;91.70;;;;;;;;;;4924278;28;20757;-37
2022/10/28 06:38:25;;;;;;;157.93;87.73;;;;;;;;;;4926581;28;20198;-36
2022/10/28 06:40:51;;;;;;;170.13;88.50;;;;;;;;;;4921048;28;20520;-37
2022/10/28 06:43:17;;;;;;;161.30;85.87;;;;;;;;;;4923200;28;20953;-36
2022/10/28 06:45:45;;;;;;;177.83;88.90;;;;;;;;;;4923078;28;20272;-37
2022/10/28 06:48:12;;;;;;;172.40;89.93;;;;;;;;;;4923975;28;20187;-37
2022/10/28 06:50:38;;;;;;;171.10;86.37;;;;;;;;;;4925735;28;20338;-36
2022/10/28 06:53:04;;;;;;;164.47;86.20;;;;;;;;;;4922633;28;20273;-36
2022/10/28 06:55:30;;;;;;;161.33;82.57;;;;;;;;;;4918750;28;20179;-37
2022/10/28 06:58:00;;;;;;;142.47;76.97;;;;;;;;;;4920613;28;21294;-36
2022/10/28 07:00:27;;;;;;;133.73;72.27;;;;;;;;;;4921464;28;20690;-37
2022/10/28 07:02:53;;;;;;;123.43;67.73;;;;;;;;;;4917655;28;20509;-36
2022/10/28 07:05:20;;;;;;;126.73;69.00;;;;;;;;;;4920656;28;20183;-36
2022/10/28 07:07:46;;;;;;;116.63;62.20;;;;;;;;;;4927284;28;20178;-37
2022/10/28 07:10:12;;;;;;;117.33;65.30;;;;;;;;;;4923844;28;20183;-37
2022/10/28 07:12:38;;;;;;;118.20;62.07;;;;;;;;;;4924758;28;20189;-36
2022/10/28 07:15:04;;;;;;;103.50;59.87;;;;;;;;;;4921282;28;20182;-37
2022/10/28 07:17:31;;;;;;;106.10;55.93;;;;;;;;;;4925402;28;20280;-37
2022/10/28 07:19:57;;;;;;;107.37;56.07;;;;;;;;;;4928066;28;20230;-37
2022/10/28 07:22:23;;;;;;;90.27;52.40;;;;;;;;;;4925931;28;20386;-37
2022/10/28 07:24:50;;;;;;;96.73;53.33;;;;;;;;;;4919061;28;20192;-37
2022/10/28 07:27:16;;;;;;;101.27;53.43;;;;;;;;;;4929149;28;20425;-36
2022/10/28 07:29:42;;;;;;;90.10;49.83;;;;;;;;;;4924573;28;20227;-37
2022/10/28 07:32:08;;;;;;;94.43;50.27;;;;;;;;;;4925885;28;20460;-37
2022/10/28 07:34:34;;;;;;;99.57;53.17;;;;;;;;;;4920727;28;20180;-37
2022/10/28 07:37:00;;;;;;;99.77;53.80;;;;;;;;;;4924728;28;21079;-37
2022/10/28 07:39:26;;;;;;;100.87;54.53;;;;;;;;;;4925860;28;20331;-37
2022/10/28 07:41:52;;;;;;;101.50;53.00;;;;;;;;;;4930786;28;20174;-37
2022/10/28 07:44:18;;;;;;;89.27;53.07;;;;;;;;;;4929226;28;20267;-37
2022/10/28 07:46:44;;;;;;;103.20;55.57;;;;;;;;;;4920224;28;20301;-37
2022/10/28 07:49:10;;;;;;;101.70;57.93;;;;;;;;;;4923812;28;20185;-37
2022/10/28 07:51:36;;;;;;;115.50;57.20;;;;;;;;;;4918011;28;20213;-36
2022/10/28 07:54:03;;;;;;;105.87;56.43;;;;;;;;;;4918172;28;20273;-37
2022/10/28 07:56:29;;;;;;;113.90;60.37;;;;;;;;;;4923765;28;20190;-37
2022/10/28 07:58:55;;;;;;;110.07;57.70;;;;;;;;;;4926016;28;20481;-36
2022/10/28 08:01:21;;;;;;;101.43;55.73;;;;;;;;;;4926527;28;20207;-37
2022/10/28 08:03:47;;;;;;;112.30;60.07;;;;;;;;;;4928073;28;20294;-38
2022/10/28 08:06:16;;;;;;;102.37;53.03;;;;;;;;;;4925217;28;20541;-37
2022/10/28 08:08:43;;;;;;;95.03;50.70;;;;;;;;;;4927318;28;20206;-37
2022/10/28 08:11:10;;;;;;;92.87;50.17;;;;;;;;;;4927730;28;20288;-37
2022/10/28 08:13:36;;;;;;;81.03;45.83;;;;;;;;;;4924613;28;21167;-37
2022/10/28 08:16:02;;;;;;;79.10;42.50;;;;;;;;;;4921167;28;20958;-37
2022/10/28 08:18:28;;;;;;;64.40;39.77;;;;;;;;;;4922267;28;20719;-37
2022/10/28 08:20:54;;;;;;;68.13;39.73;;;;;;;;;;4930363;28;20234;-37
2022/10/28 08:23:20;;;;;;;73.90;40.83;;;;;;;;;;4922782;28;20187;-38
2022/10/28 08:25:49;;;;;;;72.80;42.97;;;;;;;;;;4925074;28;20175;-37
2022/10/28 08:28:16;;;;;;;77.97;42.23;;;;;;;;;;4926420;28;20266;-38
2022/10/28 08:30:42;;;;;;;65.77;39.47;;;;;;;;;;4932940;28;20461;-37
2022/10/28 08:33:11;;;;;;;71.00;38.67;;;;;;;;;;4926602;28;20293;-37
2022/10/28 08:35:37;;;;;;;61.50;37.37;;;;;;;;;;4927346;28;20752;-37
2022/10/28 08:38:03;;;;;;;72.87;40.90;;;;;;;;;;4929821;28;20829;-37
2022/10/28 08:40:53;;;;;;;66.63;40.47;;;;;;;;;;4929730;28;20207;-36
2022/10/28 08:43:37;;;;;;;74.50;41.60;;;;;;;;;;4899814;28;20287;-37
2022/10/28 08:46:22;;;;;;;68.50;42.40;;;;;;;;;;4931533;28;20175;-37
2022/10/28 08:48:48;;;;;;;62.30;38.70;;;;;;;;;;4930506;28;20931;-37
2022/10/28 08:51:17;;;;;;;62.30;38.93;;;;;;;;;;4929555;28;20175;-38
2022/10/28 08:53:46;;;;;;;73.57;40.77;;;;;;;;;;4931072;28;20198;-37
2022/10/28 08:56:14;;;;;;;71.30;42.57;;;;;;;;;;4932860;28;20261;-37
2022/10/28 08:58:42;;;;;;;72.67;40.17;;;;;;;;;;4942293;28;20931;-36
2022/10/28 09:01:13;;;;;;;67.97;40.47;;;;;;;;;;4940187;28;21095;-36
2022/10/28 09:03:41;;;;;;;66.70;39.30;;;;;;;;;;4944591;28;21144;-37
2022/10/28 09:06:08;;;;;;;68.73;39.83;;;;;;;;;;4943398;28;20174;-38
2022/10/28 09:08:36;;;;;;;70.93;38.83;;;;;;;;;;4942382;28;20183;-38
2022/10/28 09:11:02;;;;;;;69.00;38.10;;;;;;;;;;4932746;28;20257;-37
2022/10/28 09:13:28;;;;;;;65.57;38.37;;;;;;;;;;4931009;28;20188;-37
2022/10/28 09:15:54;;;;;;;67.43;37.93;;;;;;;;;;4929647;28;20182;-37
2022/10/28 09:18:30;;;;;;;70.03;40.30;;;;;;;;;;4931917;28;20901;-38
2022/10/28 09:20:57;;;;;;;66.00;39.67;;;;;;;;;;4941787;28;20426;-37
2022/10/28 09:23:27;;;;;;;73.63;40.87;;;;;;;;;;4939780;28;20175;-37
2022/10/28 09:26:09;;;;;;;75.07;43.67;;;;;;;;;;4946691;28;20222;-37
2022/10/28 09:28:35;;;;;;;77.83;43.73;;;;;;;;;;4940158;28;20179;-37
2022/10/28 09:31:10;;;;;;;76.70;43.87;;;;;;;;;;4934120;28;20171;-37
2022/10/28 09:33:45;;;;;;;75.77;43.30;;;;;;;;;;4933538;28;20344;-37
2022/10/28 09:36:14;;;;;;;82.53;47.27;;;;;;;;;;4932189;28;20186;-37
2022/10/28 09:38:40;;;;;;;79.23;46.97;;;;;;;;;;4933191;28;20174;-38
2022/10/28 09:41:07;;;;;;;78.30;44.23;;;;;;;;;;4937083;28;20476;-37
2022/10/28 09:43:36;;;;;;;75.57;45.57;;;;;;;;;;4937626;28;20174;-37
2022/10/28 09:46:22;;;;;;;85.23;47.13;;;;;;;;;;4934726;28;20174;-37
2022/10/28 09:48:49;;;;;;;82.23;47.70;;;;;;;;;;4942563;28;20182;-37
2022/10/28 09:51:23;;;;;;;78.60;45.70;;;;;;;;;;4931213;28;20178;-38
2022/10/28 09:53:52;;;;;;;81.67;47.30;;;;;;;;;;4931295;28;20780;-37
2022/10/28 09:56:18;;;;;;;86.13;47.20;;;;;;;;;;4937018;28;20724;-37
2022/10/28 09:58:47;;;;;;;81.80;46.20;;;;;;;;;;4939352;28;20635;-38
2022/10/28 10:01:13;;;;;;;82.80;47.60;;;;;;;;;;4933037;28;20877;-38
2022/10/28 10:03:40;;;;;;;82.80;46.37;;;;;;;;;;4932821;28;20306;-38
2022/10/28 10:06:27;;;;;;;80.27;46.73;;;;;;;;;;4938975;28;20254;-34
2022/10/28 10:08:54;;;;;;;82.17;46.13;;;;;;;;;;4939246;28;21082;-35
2022/10/28 10:11:36;;;;;;;81.37;46.30;;;;;;;;;;4934266;28;20201;-34
2022/10/28 10:14:06;;;;;;;84.07;47.53;;;;;;;;;;4936441;28;20202;-35
2022/10/28 10:16:33;;;;;;;85.80;48.30;;;;;;;;;;4940803;28;20183;-34
2022/10/28 10:19:00;;;;;;;91.77;49.33;;;;;;;;;;4936692;28;20183;-34
2022/10/28 10:21:42;;;;;;;83.00;49.07;;;;;;;;;;4930004;28;20460;-35
2022/10/28 10:24:24;;;;;;;78.27;47.07;;;;;;;;;;4931598;28;20178;-34
2022/10/28 10:26:51;;;;;;;82.20;46.63;;;;;;;;;;4933967;28;20217;-34
2022/10/28 10:29:17;;;;;;;90.30;49.87;;;;;;;;;;4937736;28;20191;-34
2022/10/28 10:31:43;;;;;;;84.83;48.97;;;;;;;;;;4932949;28;20210;-35
2022/10/28 10:34:20;;;;;;;81.17;45.80;;;;;;;;;;4936438;28;20190;-35
2022/10/28 10:36:50;;;;;;;94.70;48.97;;;;;;;;;;4938647;28;20179;-34
2022/10/28 10:39:21;;;;;;;85.17;48.47;;;;;;;;;;4938804;28;20289;-35
2022/10/28 10:41:47;;;;;;;82.90;48.07;;;;;;;;;;4937272;28;20191;-34
2022/10/28 10:44:22;;;;;;;89.57;49.27;;;;;;;;;;4941384;28;20218;-35
2022/10/28 10:46:54;;;;;;;79.93;47.47;;;;;;;;;;4946322;28;20178;-35
2022/10/28 10:49:20;;;;;;;79.47;46.60;;;;;;;;;;4936899;28;20179;-35
2022/10/28 10:51:57;;;;;;;85.10;47.23;;;;;;;;;;4931854;28;20536;-35
2022/10/28 10:54:24;;;;;;;85.83;47.10;;;;;;;;;;4937354;28;20182;-34
2022/10/28 10:56:50;;;;;;;71.40;44.50;;;;;;;;;;4942437;28;20746;-34
2022/10/28 10:59:26;;;;;;;75.23;46.17;;;;;;;;;;4935104;28;20902;-34
2022/10/28 11:01:52;;;;;;;77.87;45.47;;;;;;;;;;4940545;28;20202;-35
2022/10/28 11:04:21;;;;;;;78.70;45.57;;;;;;;;;;4941085;28;20600;-34
2022/10/28 11:06:51;;;;;;;80.60;46.73;;;;;;;;;;4940274;28;20178;-35
2022/10/28 11:09:20;;;;;;;76.90;44.23;;;;;;;;;;4936850;28;20819;-34
2022/10/28 11:11:46;;;;;;;83.60;44.90;;;;;;;;;;4935222;28;20187;-35
2022/10/28 11:14:12;;;;;;;77.00;43.67;;;;;;;;;;4942417;28;20171;-34
2022/10/28 11:16:48;;;;;;;71.57;44.20;;;;;;;;;;4937815;28;20591;-35
2022/10/28 11:19:20;;;;;;;79.33;47.10;;;;;;;;;;4940761;28;20333;-35
2022/10/28 11:21:59;;;;;;;77.03;44.57;;;;;;;;;;4934657;28;20202;-35
2022/10/28 11:24:25;;;;;;;88.60;47.47;;;;;;;;;;4938281;28;20277;-35
2022/10/28 11:27:06;;;;;;;80.20;47.80;;;;;;;;;;4933427;28;20285;-35
2022/10/28 11:29:32;;;;;;;71.53;43.47;;;;;;;;;;4937850;28;20241;-35
2022/10/28 11:32:17;;;;;;;79.20;46.13;;;;;;;;;;4939768;28;20461;-35
2022/10/28 11:34:43;;;;;;;76.47;46.07;;;;;;;;;;4940456;28;20268;-36
2022/10/28 11:37:28;;;;;;;74.57;44.63;;;;;;;;;;4937219;28;20261;-36
2022/10/28 11:40:05;;;;;;;78.53;45.70;;;;;;;;;;4937569;28;20183;-36
2022/10/28 11:42:46;;;;;;;73.77;45.77;;;;;;;;;;4939701;28;20400;-36
2022/10/28 11:45:17;;;;;;;88.40;48.10;;;;;;;;;;4942409;28;20854;-35
2022/10/28 11:47:52;;;;;;;83.30;46.87;;;;;;;;;;4940371;28;20458;-36
2022/10/28 11:50:27;;;;;;;83.57;45.57;;;;;;;;;;4940809;28;20173;-35
2022/10/28 11:53:04;;;;;;;71.87;43.10;;;;;;;;;;4944554;28;20515;-36
2022/10/28 11:55:30;;;;;;;75.37;43.73;;;;;;;;;;4939393;28;20213;-36
2022/10/28 11:58:03;;;;;;;77.57;45.20;;;;;;;;;;4936292;28;20215;-35
2022/10/28 12:00:52;;;;;;;84.40;45.40;;;;;;;;;;4935321;28;20191;-35
2022/10/28 12:03:25;;;;;;;69.13;42.73;;;;;;;;;;4940986;28;20177;-36
2022/10/28 12:05:55;;;;;;;75.53;43.43;;;;;;;;;;4938047;28;20598;-35
2022/10/28 12:08:35;;;;;;;73.33;43.27;;;;;;;;;;4939297;28;20162;-36
2022/10/28 12:11:10;;;;;;;76.93;41.27;;;;;;;;;;4940121;28;20229;-36
2022/10/28 12:13:40;;;;;;;68.73;40.60;;;;;;;;;;4936295;28;20182;-35
2022/10/28 12:16:12;;;;;;;82.77;43.73;;;;;;;;;;4939190;28;20186;-36
2022/10/28 12:18:58;;;;;;;72.13;43.57;;;;;;;;;;4939252;28;20234;-36
2022/10/28 12:21:41;;;;;;;72.97;43.40;;;;;;;;;;4916985;28;21190;-36
2022/10/28 12:24:14;;;;;;;69.57;42.67;;;;;;;;;;4936335;28;20175;-36
2022/10/28 12:26:45;;;;;;;70.97;42.13;;;;;;;;;;4939800;28;20179;-36
2022/10/28 12:29:18;;;;;;;69.23;39.20;;;;;;;;;;4939576;28;20504;-36
2022/10/28 12:31:51;;;;;;;57.60;36.27;;;;;;;;;;4937035;28;20182;-36
2022/10/28 12:34:19;;;;;;;65.63;37.03;;;;;;;;;;4938454;28;20171;-36
2022/10/28 12:36:54;;;;;;;68.60;38.40;;;;;;;;;;4938234;28;20183;-36
2022/10/28 12:39:33;;;;;;;65.70;37.10;;;;;;;;;;4940598;28;20696;-36
2022/10/28 12:42:20;;;;;;;66.30;37.80;;;;;;;;;;4940236;28;20680;-36
2022/10/28 12:44:47;;;;;;;58.70;35.43;;;;;;;;;;4939160;28;20171;-36
2022/10/28 12:47:31;;;;;;;61.60;36.60;;;;;;;;;;4941529;28;20273;-36
2022/10/28 12:50:10;;;;;;;68.60;36.13;;;;;;;;;;4937479;28;21042;-36
2022/10/28 12:52:53;;;;;;;62.80;36.20;;;;;;;;;;4939957;28;20186;-36
2022/10/28 12:55:24;;;;;;;61.17;33.93;;;;;;;;;;4936398;28;20300;-36
2022/10/28 12:57:57;;;;;;;62.80;35.17;;;;;;;;;;4934105;28;20659;-35
2022/10/28 13:00:29;;;;;;;61.83;36.30;;;;;;;;;;4939267;28;20758;-36
2022/10/28 13:03:00;;;;;;;57.53;32.90;;;;;;;;;;4941206;28;20175;-37
2022/10/28 13:05:28;;;;;;;53.47;31.50;;;;;;;;;;4935812;28;20727;-36
2022/10/28 13:08:09;;;;;;;65.97;36.93;;;;;;;;;;4941050;28;20683;-35
2022/10/28 13:10:42;;;;;;;61.97;36.03;;;;;;;;;;4940853;28;20171;-35
2022/10/28 13:13:35;;;;;;;65.17;36.07;;;;;;;;;;4941870;28;20461;-36
2022/10/28 13:16:10;;;;;;;58.43;34.67;;;;;;;;;;4937348;28;20626;-36
2022/10/28 13:18:45;;;;;;;60.70;35.63;;;;;;;;;;4939073;28;20176;-35
2022/10/28 13:21:30;;;;;;;62.03;33.60;;;;;;;;;;4939998;28;20198;-36
2022/10/28 13:23:56;;;;;;;61.53;36.13;;;;;;;;;;4941028;28;20614;-36
2022/10/28 13:26:25;;;;;;;58.90;33.70;;;;;;;;;;4941690;28;20253;-36
2022/10/28 13:28:53;;;;;;;54.87;31.37;;;;;;;;;;4938754;28;20621;-35
2022/10/28 13:31:19;;;;;;;53.87;31.73;;;;;;;;;;4943432;28;20213;-36
2022/10/28 13:34:06;;;;;;;52.97;30.37;;;;;;;;;;4948819;28;20179;-36
2022/10/28 13:36:35;;;;;;;51.97;31.30;;;;;;;;;;4944111;28;20289;-36
2022/10/28 13:39:02;;;;;;;55.10;30.10;;;;;;;;;;4937763;28;20189;-36
2022/10/28 13:41:33;;;;;;;62.07;33.67;;;;;;;;;;4941399;28;20206;-36
2022/10/28 13:44:13;;;;;;;61.63;34.00;;;;;;;;;;4943686;28;20255;-36
2022/10/28 13:46:57;;;;;;;59.67;33.93;;;;;;;;;;4943219;28;20733;-36
2022/10/28 13:49:33;;;;;;;63.37;36.60;;;;;;;;;;4938260;28;20190;-36
2022/10/28 13:52:06;;;;;;;58.10;36.17;;;;;;;;;;4939346;28;20287;-36
2022/10/28 13:54:32;;;;;;;59.00;34.83;;;;;;;;;;4926913;28;20189;-36
2022/10/28 13:57:06;;;;;;;60.17;35.67;;;;;;;;;;4922362;28;20846;-37
2022/10/28 13:59:37;;;;;;;53.83;32.90;;;;;;;;;;4926641;28;20189;-36
2022/10/28 14:02:14;;;;;;;61.50;35.60;;;;;;;;;;4922581;28;20202;-36
2022/10/28 14:04:41;;;;;;;58.10;36.00;;;;;;;;;;4936816;28;20170;-36
2022/10/28 14:07:10;;;;;;;54.43;34.03;;;;;;;;;;4935875;28;20738;-36
2022/10/28 14:09:37;;;;;;;61.47;36.87;;;;;;;;;;4935569;28;20170;-37
2022/10/28 14:12:03;;;;;;;53.37;34.17;;;;;;;;;;4942471;28;20178;-36
2022/10/28 14:14:30;;;;;;;54.63;34.10;;;;;;;;;;4939135;28;20183;-36
2022/10/28 14:16:56;;;;;;;55.33;34.83;;;;;;;;;;4933882;28;20632;-36
2022/10/28 14:19:22;;;;;;;56.37;34.20;;;;;;;;;;4941830;28;20808;-35
2022/10/28 14:22:07;;;;;;;60.27;35.77;;;;;;;;;;4938866;28;20301;-36